sensor_id;sensor_type;location;lat;lon;timestamp;temperature;humidity
7894;DHT22;51343;51.396;6.656;2023-10-31T00:02:09;10.80;99.90
7894;DHT22;51343;51.396;6.656;2023-10-31T00:04:35;10.80;99.90
7894;DHT22;51343;51.396;6.656;2023-10-31T00:07:04;10.70;99.90
7894;DHT22;51343;51.396;6.656;2023-10-31T00:09:30;10.70;99.90
7894;DHT22;51343;51.396;6.656;2023-10-31T00:11:57;10.70;99.90
7894;DHT22;51343;51.396;6.656;2023-10-31T00:14:24;10.70;99.90
7894;DHT22;51343;51.396;6.656;2023-10-31T00:16:50;10.70;99.90
7894;DHT22;51343;51.396;6.656;2023-10-31T00:19:17;10.70;99.90
7894;DHT22;51343;51.396;6.656;2023-10-31T00:21:43;10.60;99.90
7894;DHT22;51343;51.396;6.656;2023-10-31T00:24:11;10.70;99.90
7894;DHT22;51343;51.396;6.656;2023-10-31T00:26:38;10.60;99.90
7894;DHT22;51343;51.396;6.656;2023-10-31T00:29:05;10.60;99.90
7894;DHT22;51343;51.396;6.656;2023-10-31T00:31:31;10.60;99.90
7894;DHT22;51343;51.396;6.656;2023-10-31T00:34:00;10.60;99.90
7894;DHT22;51343;51.396;6.656;2023-10-31T00:36:26;10.60;99.90
7894;DHT22;51343;51.396;6.656;2023-10-31T00:38:53;10.50;99.90
7894;DHT22;51343;51.396;6.656;2023-10-31T00:41:21;10.50;99.90
7894;DHT22;51343;51.396;6.656;2023-10-31T00:43:47;10.50;99.90
7894;DHT22;51343;51.396;6.656;2023-10-31T00:46:14;10.40;99.90
7894;DHT22;51343;51.396;6.656;2023-10-31T00:48:40;10.40;99.90
7894;DHT22;51343;51.396;6.656;2023-10-31T00:51:07;10.30;99.90
7894;DHT22;51343;51.396;6.656;2023-10-31T00:53:34;10.30;99.90
7894;DHT22;51343;51.396;6.656;2023-10-31T00:56:01;10.30;99.90
7894;DHT22;51343;51.396;6.656;2023-10-31T00:58:29;10.30;99.90
7894;DHT22;51343;51.396;6.656;2023-10-31T01:00:55;10.30;99.90
7894;DHT22;51343;51.396;6.656;2023-10-31T01:03:22;10.30;99.90
7894;DHT22;51343;51.396;6.656;2023-10-31T01:05:48;10.30;99.90
7894;DHT22;51343;51.396;6.656;2023-10-31T01:08:15;10.30;99.90
7894;DHT22;51343;51.396;6.656;2023-10-31T01:10:41;10.30;99.90
7894;DHT22;51343;51.396;6.656;2023-10-31T01:13:08;10.40;99.90
7894;DHT22;51343;51.396;6.656;2023-10-31T01:15:36;10.40;99.90
7894;DHT22;51343;51.396;6.656;2023-10-31T01:18:03;10.40;99.90
7894;DHT22;51343;51.396;6.656;2023-10-31T01:20:29;10.40;99.90
7894;DHT22;51343;51.396;6.656;2023-10-31T01:22:56;10.40;99.90
7894;DHT22;51343;51.396;6.656;2023-10-31T01:25:22;10.40;99.90
7894;DHT22;51343;51.396;6.656;2023-10-31T01:27:49;10.40;99.90
7894;DHT22;51343;51.396;6.656;2023-10-31T01:30:16;10.40;99.90
7894;DHT22;51343;51.396;6.656;2023-10-31T01:32:44;10.40;99.90
7894;DHT22;51343;51.396;6.656;2023-10-31T01:35:10;10.40;99.90
7894;DHT22;51343;51.396;6.656;2023-10-31T01:37:37;10.40;99.90
7894;DHT22;51343;51.396;6.656;2023-10-31T01:40:04;10.40;99.90
7894;DHT22;51343;51.396;6.656;2023-10-31T01:42:32;10.40;99.90
7894;DHT22;51343;51.396;6.656;2023-10-31T01:44:59;10.40;99.90
7894;DHT22;51343;51.396;6.656;2023-10-31T01:47:25;10.40;99.90
7894;DHT22;51343;51.396;6.656;2023-10-31T01:49:53;10.40;99.90
7894;DHT22;51343;51.396;6.656;2023-10-31T01:52:20;10.40;99.90
7894;DHT22;51343;51.396;6.656;2023-10-31T01:54:47;10.30;99.90
7894;DHT22;51343;51.396;6.656;2023-10-31T01:57:14;10.30;99.90
7894;DHT22;51343;51.396;6.656;2023-10-31T01:59:41;10.30;99.90
7894;DHT22;51343;51.396;6.656;2023-10-31T02:02:07;10.30;99.90
7894;DHT22;51343;51.396;6.656;2023-10-31T02:04:34;10.20;99.90
7894;DHT22;51343;51.396;6.656;2023-10-31T02:07:02;10.20;99.90
7894;DHT22;51343;51.396;6.656;2023-10-31T02:09:29;10.20;99.90
7894;DHT22;51343;51.396;6.656;2023-10-31T02:11:56;10.20;99.90
7894;DHT22;51343;51.396;6.656;2023-10-31T02:14:23;10.20;99.90
7894;DHT22;51343;51.396;6.656;2023-10-31T02:16:50;10.20;99.90
7894;DHT22;51343;51.396;6.656;2023-10-31T02:19:18;10.20;99.90
7894;DHT22;51343;51.396;6.656;2023-10-31T02:21:46;10.20;99.90
7894;DHT22;51343;51.396;6.656;2023-10-31T02:24:13;10.20;99.90
7894;DHT22;51343;51.396;6.656;2023-10-31T02:26:40;10.20;99.90
7894;DHT22;51343;51.396;6.656;2023-10-31T02:29:06;10.20;99.90
7894;DHT22;51343;51.396;6.656;2023-10-31T02:31:33;10.20;99.90
7894;DHT22;51343;51.396;6.656;2023-10-31T02:33:59;10.20;99.90
7894;DHT22;51343;51.396;6.656;2023-10-31T02:36:26;10.20;99.90
7894;DHT22;51343;51.396;6.656;2023-10-31T02:38:54;10.20;99.90
7894;DHT22;51343;51.396;6.656;2023-10-31T02:41:20;10.30;99.90
7894;DHT22;51343;51.396;6.656;2023-10-31T02:43:48;10.30;99.90
7894;DHT22;51343;51.396;6.656;2023-10-31T02:46:15;10.20;99.90
7894;DHT22;51343;51.396;6.656;2023-10-31T02:48:41;10.30;99.90
7894;DHT22;51343;51.396;6.656;2023-10-31T02:51:08;10.30;99.90
7894;DHT22;51343;51.396;6.656;2023-10-31T02:53:34;10.30;99.90
7894;DHT22;51343;51.396;6.656;2023-10-31T02:56:03;10.30;99.90
7894;DHT22;51343;51.396;6.656;2023-10-31T02:58:29;10.40;99.90
7894;DHT22;51343;51.396;6.656;2023-10-31T03:00:56;10.30;99.90
7894;DHT22;51343;51.396;6.656;2023-10-31T03:03:23;10.40;99.90
7894;DHT22;51343;51.396;6.656;2023-10-31T03:05:49;10.40;99.90
7894;DHT22;51343;51.396;6.656;2023-10-31T03:08:16;10.40;99.90
7894;DHT22;51343;51.396;6.656;2023-10-31T03:10:46;10.40;99.90
7894;DHT22;51343;51.396;6.656;2023-10-31T03:13:16;10.40;99.90
7894;DHT22;51343;51.396;6.656;2023-10-31T03:15:43;10.40;99.90
7894;DHT22;51343;51.396;6.656;2023-10-31T03:18:09;10.30;99.90
7894;DHT22;51343;51.396;6.656;2023-10-31T03:20:36;10.30;99.90
7894;DHT22;51343;51.396;6.656;2023-10-31T03:23:02;10.20;99.90
7894;DHT22;51343;51.396;6.656;2023-10-31T03:25:29;10.30;99.90
7894;DHT22;51343;51.396;6.656;2023-10-31T03:27:56;10.20;99.90
7894;DHT22;51343;51.396;6.656;2023-10-31T03:30:24;10.20;99.90
7894;DHT22;51343;51.396;6.656;2023-10-31T03:32:50;10.20;99.90
7894;DHT22;51343;51.396;6.656;2023-10-31T03:35:17;10.10;99.90
7894;DHT22;51343;51.396;6.656;2023-10-31T03:37:43;10.10;99.90
7894;DHT22;51343;51.396;6.656;2023-10-31T03:40:10;10.10;99.90
7894;DHT22;51343;51.396;6.656;2023-10-31T03:42:37;10.10;99.90
7894;DHT22;51343;51.396;6.656;2023-10-31T03:45:03;10.10;99.90
7894;DHT22;51343;51.396;6.656;2023-10-31T03:47:33;10.10;99.90
7894;DHT22;51343;51.396;6.656;2023-10-31T03:49:59;10.10;99.90
7894;DHT22;51343;51.396;6.656;2023-10-31T03:52:26;10.10;99.90
7894;DHT22;51343;51.396;6.656;2023-10-31T03:54:52;10.10;99.90
7894;DHT22;51343;51.396;6.656;2023-10-31T03:57:19;10.10;99.90
7894;DHT22;51343;51.396;6.656;2023-10-31T03:59:45;10.10;99.90
7894;DHT22;51343;51.396;6.656;2023-10-31T04:02:12;10.10;99.90
7894;DHT22;51343;51.396;6.656;2023-10-31T04:04:40;10.10;99.90
7894;DHT22;51343;51.396;6.656;2023-10-31T04:07:06;10.10;99.90
7894;DHT22;51343;51.396;6.656;2023-10-31T04:09:33;10.10;99.90
7894;DHT22;51343;51.396;6.656;2023-10-31T04:11:59;10.10;99.90
7894;DHT22;51343;51.396;6.656;2023-10-31T04:14:26;10.10;99.90
7894;DHT22;51343;51.396;6.656;2023-10-31T04:16:53;10.10;99.90
7894;DHT22;51343;51.396;6.656;2023-10-31T04:19:19;10.10;99.90
7894;DHT22;51343;51.396;6.656;2023-10-31T04:21:47;10.10;99.90
7894;DHT22;51343;51.396;6.656;2023-10-31T04:24:14;10.10;99.90
7894;DHT22;51343;51.396;6.656;2023-10-31T04:26:40;10.10;99.90
7894;DHT22;51343;51.396;6.656;2023-10-31T04:29:07;10.10;99.90
7894;DHT22;51343;51.396;6.656;2023-10-31T04:31:34;10.10;99.90
7894;DHT22;51343;51.396;6.656;2023-10-31T04:34:00;10.10;99.90
7894;DHT22;51343;51.396;6.656;2023-10-31T04:36:27;10.10;99.90
7894;DHT22;51343;51.396;6.656;2023-10-31T04:38:55;10.10;99.90
7894;DHT22;51343;51.396;6.656;2023-10-31T04:41:21;10.10;99.90
7894;DHT22;51343;51.396;6.656;2023-10-31T04:43:48;10.10;99.90
7894;DHT22;51343;51.396;6.656;2023-10-31T04:46:14;10.10;99.90
7894;DHT22;51343;51.396;6.656;2023-10-31T04:48:41;10.10;99.90
7894;DHT22;51343;51.396;6.656;2023-10-31T04:51:08;10.10;99.90
7894;DHT22;51343;51.396;6.656;2023-10-31T04:53:35;10.10;99.90
7894;DHT22;51343;51.396;6.656;2023-10-31T04:56:03;10.10;99.90
7894;DHT22;51343;51.396;6.656;2023-10-31T04:58:30;10.10;99.90
7894;DHT22;51343;51.396;6.656;2023-10-31T05:00:57;10.10;99.90
7894;DHT22;51343;51.396;6.656;2023-10-31T05:03:23;10.10;99.90
7894;DHT22;51343;51.396;6.656;2023-10-31T05:05:50;10.10;99.90
7894;DHT22;51343;51.396;6.656;2023-10-31T05:08:16;10.10;99.90
7894;DHT22;51343;51.396;6.656;2023-10-31T05:10:43;10.10;99.90
7894;DHT22;51343;51.396;6.656;2023-10-31T05:13:14;10.10;99.90
7894;DHT22;51343;51.396;6.656;2023-10-31T05:15:40;10.10;99.90
7894;DHT22;51343;51.396;6.656;2023-10-31T05:18:07;10.10;99.90
7894;DHT22;51343;51.396;6.656;2023-10-31T05:20:33;10.10;99.90
7894;DHT22;51343;51.396;6.656;2023-10-31T05:23:00;10.20;99.90
7894;DHT22;51343;51.396;6.656;2023-10-31T05:25:27;10.20;99.90
7894;DHT22;51343;51.396;6.656;2023-10-31T05:27:53;10.20;99.90
7894;DHT22;51343;51.396;6.656;2023-10-31T05:30:21;10.20;99.90
7894;DHT22;51343;51.396;6.656;2023-10-31T05:32:49;10.20;99.90
7894;DHT22;51343;51.396;6.656;2023-10-31T05:35:16;10.20;99.90
7894;DHT22;51343;51.396;6.656;2023-10-31T05:37:43;10.20;99.90
7894;DHT22;51343;51.396;6.656;2023-10-31T05:40:10;10.20;99.90
7894;DHT22;51343;51.396;6.656;2023-10-31T05:42:37;10.20;99.90
7894;DHT22;51343;51.396;6.656;2023-10-31T05:45:04;10.10;99.90
7894;DHT22;51343;51.396;6.656;2023-10-31T05:47:32;10.20;99.90
7894;DHT22;51343;51.396;6.656;2023-10-31T05:49:59;10.20;99.90
7894;DHT22;51343;51.396;6.656;2023-10-31T05:52:27;10.10;99.90
7894;DHT22;51343;51.396;6.656;2023-10-31T05:54:53;10.10;99.90
7894;DHT22;51343;51.396;6.656;2023-10-31T05:57:20;10.10;99.90
7894;DHT22;51343;51.396;6.656;2023-10-31T05:59:47;10.10;99.90
7894;DHT22;51343;51.396;6.656;2023-10-31T06:02:13;10.10;99.90
7894;DHT22;51343;51.396;6.656;2023-10-31T06:04:41;10.10;99.90
7894;DHT22;51343;51.396;6.656;2023-10-31T06:07:08;10.10;99.90
7894;DHT22;51343;51.396;6.656;2023-10-31T06:09:34;10.00;99.90
7894;DHT22;51343;51.396;6.656;2023-10-31T06:12:01;10.00;99.90
7894;DHT22;51343;51.396;6.656;2023-10-31T06:14:28;10.10;99.90
7894;DHT22;51343;51.396;6.656;2023-10-31T06:16:54;10.00;99.90
7894;DHT22;51343;51.396;6.656;2023-10-31T06:19:24;10.00;99.90
7894;DHT22;51343;51.396;6.656;2023-10-31T06:21:52;10.10;99.90
7894;DHT22;51343;51.396;6.656;2023-10-31T06:24:18;10.00;99.90
7894;DHT22;51343;51.396;6.656;2023-10-31T06:26:45;10.00;99.90
7894;DHT22;51343;51.396;6.656;2023-10-31T06:29:12;10.10;99.90
7894;DHT22;51343;51.396;6.656;2023-10-31T06:31:39;10.00;99.90
7894;DHT22;51343;51.396;6.656;2023-10-31T06:34:05;10.10;99.90
7894;DHT22;51343;51.396;6.656;2023-10-31T06:36:32;10.10;99.90
7894;DHT22;51343;51.396;6.656;2023-10-31T06:39:00;10.10;99.90
7894;DHT22;51343;51.396;6.656;2023-10-31T06:41:26;10.10;99.90
7894;DHT22;51343;51.396;6.656;2023-10-31T06:43:53;10.10;99.90
7894;DHT22;51343;51.396;6.656;2023-10-31T06:46:19;10.10;99.90
7894;DHT22;51343;51.396;6.656;2023-10-31T06:48:46;10.10;99.90
7894;DHT22;51343;51.396;6.656;2023-10-31T06:51:12;10.10;99.90
7894;DHT22;51343;51.396;6.656;2023-10-31T06:53:39;10.10;99.90
7894;DHT22;51343;51.396;6.656;2023-10-31T06:56:07;10.10;99.90
7894;DHT22;51343;51.396;6.656;2023-10-31T06:58:34;10.10;99.90
7894;DHT22;51343;51.396;6.656;2023-10-31T07:01:00;10.20;99.90
7894;DHT22;51343;51.396;6.656;2023-10-31T07:03:27;10.20;99.90
7894;DHT22;51343;51.396;6.656;2023-10-31T07:05:54;10.20;99.90
7894;DHT22;51343;51.396;6.656;2023-10-31T07:08:21;10.20;99.90
7894;DHT22;51343;51.396;6.656;2023-10-31T07:10:48;10.20;99.90
7894;DHT22;51343;51.396;6.656;2023-10-31T07:13:16;10.20;99.90
7894;DHT22;51343;51.396;6.656;2023-10-31T07:15:43;10.20;99.90
7894;DHT22;51343;51.396;6.656;2023-10-31T07:18:09;10.30;99.90
7894;DHT22;51343;51.396;6.656;2023-10-31T07:20:36;10.30;99.90
7894;DHT22;51343;51.396;6.656;2023-10-31T07:23:02;10.30;99.90
7894;DHT22;51343;51.396;6.656;2023-10-31T07:25:29;10.30;99.90
7894;DHT22;51343;51.396;6.656;2023-10-31T07:27:55;10.30;99.90
7894;DHT22;51343;51.396;6.656;2023-10-31T07:30:23;10.30;99.90
7894;DHT22;51343;51.396;6.656;2023-10-31T07:32:50;10.30;99.90
7894;DHT22;51343;51.396;6.656;2023-10-31T07:35:17;10.30;99.90
7894;DHT22;51343;51.396;6.656;2023-10-31T07:37:45;10.30;99.90
7894;DHT22;51343;51.396;6.656;2023-10-31T07:40:11;10.40;99.90
7894;DHT22;51343;51.396;6.656;2023-10-31T07:42:38;10.40;99.90
7894;DHT22;51343;51.396;6.656;2023-10-31T07:45:05;10.40;99.90
7894;DHT22;51343;51.396;6.656;2023-10-31T07:47:33;10.40;99.90
7894;DHT22;51343;51.396;6.656;2023-10-31T07:50:00;10.50;99.90
7894;DHT22;51343;51.396;6.656;2023-10-31T07:52:26;10.50;99.90
7894;DHT22;51343;51.396;6.656;2023-10-31T07:54:53;10.50;99.90
7894;DHT22;51343;51.396;6.656;2023-10-31T07:57:19;10.50;99.90
7894;DHT22;51343;51.396;6.656;2023-10-31T07:59:46;10.50;99.90
7894;DHT22;51343;51.396;6.656;2023-10-31T08:02:12;10.40;99.90
7894;DHT22;51343;51.396;6.656;2023-10-31T08:04:40;10.40;99.90
7894;DHT22;51343;51.396;6.656;2023-10-31T08:07:07;10.50;99.90
7894;DHT22;51343;51.396;6.656;2023-10-31T08:09:33;10.50;99.90
7894;DHT22;51343;51.396;6.656;2023-10-31T08:12:00;10.50;99.90
7894;DHT22;51343;51.396;6.656;2023-10-31T08:14:27;10.50;99.90
7894;DHT22;51343;51.396;6.656;2023-10-31T08:16:53;10.50;99.90
7894;DHT22;51343;51.396;6.656;2023-10-31T08:19:20;10.40;99.90
7894;DHT22;51343;51.396;6.656;2023-10-31T08:21:48;10.40;99.90
7894;DHT22;51343;51.396;6.656;2023-10-31T08:24:15;10.30;99.90
7894;DHT22;51343;51.396;6.656;2023-10-31T08:26:41;10.30;99.90
7894;DHT22;51343;51.396;6.656;2023-10-31T08:29:08;10.30;99.90
7894;DHT22;51343;51.396;6.656;2023-10-31T08:31:34;10.30;99.90
7894;DHT22;51343;51.396;6.656;2023-10-31T08:34:01;10.30;99.90
7894;DHT22;51343;51.396;6.656;2023-10-31T08:36:28;10.50;99.90
7894;DHT22;51343;51.396;6.656;2023-10-31T08:38:56;10.50;99.90
7894;DHT22;51343;51.396;6.656;2023-10-31T08:41:23;10.60;99.90
7894;DHT22;51343;51.396;6.656;2023-10-31T08:43:50;10.60;99.90
7894;DHT22;51343;51.396;6.656;2023-10-31T08:46:16;10.60;99.90
7894;DHT22;51343;51.396;6.656;2023-10-31T08:48:43;10.60;99.90
7894;DHT22;51343;51.396;6.656;2023-10-31T08:51:09;10.70;99.90
7894;DHT22;51343;51.396;6.656;2023-10-31T08:53:36;10.70;99.90
7894;DHT22;51343;51.396;6.656;2023-10-31T08:56:04;10.80;99.90
7894;DHT22;51343;51.396;6.656;2023-10-31T08:58:31;10.80;99.90
7894;DHT22;51343;51.396;6.656;2023-10-31T09:00:57;10.90;99.90
7894;DHT22;51343;51.396;6.656;2023-10-31T09:03:24;10.90;99.90
7894;DHT22;51343;51.396;6.656;2023-10-31T09:05:50;10.90;99.90
7894;DHT22;51343;51.396;6.656;2023-10-31T09:08:17;10.90;99.90
7894;DHT22;51343;51.396;6.656;2023-10-31T09:10:44;11.00;99.90
7894;DHT22;51343;51.396;6.656;2023-10-31T09:13:13;11.00;99.90
7894;DHT22;51343;51.396;6.656;2023-10-31T09:15:40;11.10;99.90
7894;DHT22;51343;51.396;6.656;2023-10-31T09:18:06;11.10;99.90
7894;DHT22;51343;51.396;6.656;2023-10-31T09:20:33;11.10;99.90
7894;DHT22;51343;51.396;6.656;2023-10-31T09:23:00;11.10;99.90
7894;DHT22;51343;51.396;6.656;2023-10-31T09:25:27;11.00;99.90
7894;DHT22;51343;51.396;6.656;2023-10-31T09:27:53;11.10;99.90
7894;DHT22;51343;51.396;6.656;2023-10-31T09:30:21;11.10;99.90
7894;DHT22;51343;51.396;6.656;2023-10-31T09:32:48;11.20;99.90
7894;DHT22;51343;51.396;6.656;2023-10-31T09:35:14;11.30;99.90
7894;DHT22;51343;51.396;6.656;2023-10-31T09:37:41;11.40;99.90
7894;DHT22;51343;51.396;6.656;2023-10-31T09:40:08;11.50;99.90
7894;DHT22;51343;51.396;6.656;2023-10-31T09:42:35;11.50;99.90
7894;DHT22;51343;51.396;6.656;2023-10-31T09:45:02;11.40;99.90
7894;DHT22;51343;51.396;6.656;2023-10-31T09:47:30;11.40;99.90
7894;DHT22;51343;51.396;6.656;2023-10-31T09:49:58;11.40;99.90
7894;DHT22;51343;51.396;6.656;2023-10-31T09:52:24;11.40;99.90
7894;DHT22;51343;51.396;6.656;2023-10-31T09:54:51;11.30;99.90
7894;DHT22;51343;51.396;6.656;2023-10-31T09:57:18;11.30;99.90
7894;DHT22;51343;51.396;6.656;2023-10-31T09:59:45;11.30;99.90
7894;DHT22;51343;51.396;6.656;2023-10-31T10:02:11;11.30;99.90
7894;DHT22;51343;51.396;6.656;2023-10-31T10:04:39;11.40;99.90
7894;DHT22;51343;51.396;6.656;2023-10-31T10:07:06;11.50;99.90
7894;DHT22;51343;51.396;6.656;2023-10-31T10:09:33;11.60;99.90
7894;DHT22;51343;51.396;6.656;2023-10-31T10:11:59;11.70;99.90
7894;DHT22;51343;51.396;6.656;2023-10-31T10:14:26;11.90;99.90
7894;DHT22;51343;51.396;6.656;2023-10-31T10:16:53;12.10;99.90
7894;DHT22;51343;51.396;6.656;2023-10-31T10:19:21;12.30;99.90
7894;DHT22;51343;51.396;6.656;2023-10-31T10:21:51;12.50;99.90
7894;DHT22;51343;51.396;6.656;2023-10-31T10:24:18;12.50;99.90
7894;DHT22;51343;51.396;6.656;2023-10-31T10:26:45;12.60;99.90
7894;DHT22;51343;51.396;6.656;2023-10-31T10:29:11;12.70;99.90
7894;DHT22;51343;51.396;6.656;2023-10-31T10:31:38;13.00;99.90
7894;DHT22;51343;51.396;6.656;2023-10-31T10:34:04;13.00;89.40
7894;DHT22;51343;51.396;6.656;2023-10-31T10:36:32;13.00;1.00
7894;DHT22;51343;51.396;6.656;2023-10-31T10:39:00;13.00;99.90
7894;DHT22;51343;51.396;6.656;2023-10-31T10:41:27;12.90;99.90
7894;DHT22;51343;51.396;6.656;2023-10-31T10:43:55;12.80;1.00
7894;DHT22;51343;51.396;6.656;2023-10-31T10:46:23;12.80;99.90
7894;DHT22;51343;51.396;6.656;2023-10-31T10:48:50;12.60;1.00
7894;DHT22;51343;51.396;6.656;2023-10-31T10:51:24;12.60;99.90
7894;DHT22;51343;51.396;6.656;2023-10-31T10:53:55;12.60;19.80
7894;DHT22;51343;51.396;6.656;2023-10-31T10:56:25;12.60;1.00
7894;DHT22;51343;51.396;6.656;2023-10-31T10:58:55;12.50;99.90
7894;DHT22;51343;51.396;6.656;2023-10-31T11:01:25;12.60;1.00
7894;DHT22;51343;51.396;6.656;2023-10-31T11:03:53;12.60;1.00
7894;DHT22;51343;51.396;6.656;2023-10-31T11:06:20;12.60;1.00
7894;DHT22;51343;51.396;6.656;2023-10-31T11:08:47;12.70;1.00
7894;DHT22;51343;51.396;6.656;2023-10-31T11:11:14;12.70;1.00
7894;DHT22;51343;51.396;6.656;2023-10-31T11:13:42;12.90;99.90
7894;DHT22;51343;51.396;6.656;2023-10-31T11:16:11;13.20;99.90
7894;DHT22;51343;51.396;6.656;2023-10-31T11:18:39;13.30;1.00
7894;DHT22;51343;51.396;6.656;2023-10-31T11:21:06;13.40;1.00
7894;DHT22;51343;51.396;6.656;2023-10-31T11:23:33;13.60;1.00
7894;DHT22;51343;51.396;6.656;2023-10-31T11:25:59;14.00;1.00
7894;DHT22;51343;51.396;6.656;2023-10-31T11:28:26;14.50;1.00
7894;DHT22;51343;51.396;6.656;2023-10-31T11:30:54;15.00;99.90
7894;DHT22;51343;51.396;6.656;2023-10-31T11:33:26;15.10;99.90
7894;DHT22;51343;51.396;6.656;2023-10-31T11:35:59;15.20;99.90
7894;DHT22;51343;51.396;6.656;2023-10-31T11:38:30;14.90;99.90
7894;DHT22;51343;51.396;6.656;2023-10-31T11:40:58;14.30;99.90
7894;DHT22;51343;51.396;6.656;2023-10-31T11:43:25;13.80;99.90
7894;DHT22;51343;51.396;6.656;2023-10-31T11:45:52;13.40;99.90
7894;DHT22;51343;51.396;6.656;2023-10-31T11:48:43;13.10;1.00
7894;DHT22;51343;51.396;6.656;2023-10-31T11:51:08;13.10;1.00
7894;DHT22;51343;51.396;6.656;2023-10-31T11:53:35;13.20;1.00
7894;DHT22;51343;51.396;6.656;2023-10-31T11:56:05;13.60;1.00
7894;DHT22;51343;51.396;6.656;2023-10-31T11:58:31;13.90;1.00
7894;DHT22;51343;51.396;6.656;2023-10-31T12:01:00;14.10;1.00
7894;DHT22;51343;51.396;6.656;2023-10-31T12:03:35;14.40;99.90
7894;DHT22;51343;51.396;6.656;2023-10-31T12:06:02;14.60;99.90
7894;DHT22;51343;51.396;6.656;2023-10-31T12:08:30;14.60;99.90
7894;DHT22;51343;51.396;6.656;2023-10-31T12:11:07;14.80;99.90
7894;DHT22;51343;51.396;6.656;2023-10-31T12:13:34;14.60;99.90
7894;DHT22;51343;51.396;6.656;2023-10-31T12:16:01;14.20;99.90
7894;DHT22;51343;51.396;6.656;2023-10-31T12:18:29;14.00;99.90
7894;DHT22;51343;51.396;6.656;2023-10-31T12:20:56;13.80;99.90
7894;DHT22;51343;51.396;6.656;2023-10-31T12:23:22;13.80;99.90
7894;DHT22;51343;51.396;6.656;2023-10-31T12:25:49;13.80;99.90
7894;DHT22;51343;51.396;6.656;2023-10-31T12:28:16;13.90;99.90
7894;DHT22;51343;51.396;6.656;2023-10-31T12:30:44;14.10;99.90
7894;DHT22;51343;51.396;6.656;2023-10-31T12:33:11;14.20;99.90
7894;DHT22;51343;51.396;6.656;2023-10-31T12:35:39;14.20;99.90
7894;DHT22;51343;51.396;6.656;2023-10-31T12:38:06;14.10;99.90
7894;DHT22;51343;51.396;6.656;2023-10-31T12:40:33;14.00;99.90
7894;DHT22;51343;51.396;6.656;2023-10-31T12:43:02;14.00;99.90
7894;DHT22;51343;51.396;6.656;2023-10-31T12:45:28;13.90;99.90
7894;DHT22;51343;51.396;6.656;2023-10-31T12:48:01;13.80;99.90
7894;DHT22;51343;51.396;6.656;2023-10-31T12:50:29;14.00;99.90
7894;DHT22;51343;51.396;6.656;2023-10-31T12:52:57;13.90;99.90
7894;DHT22;51343;51.396;6.656;2023-10-31T12:55:25;13.70;99.90
7894;DHT22;51343;51.396;6.656;2023-10-31T12:57:52;13.80;99.90
7894;DHT22;51343;51.396;6.656;2023-10-31T13:00:19;13.90;99.90
7894;DHT22;51343;51.396;6.656;2023-10-31T13:02:50;13.80;99.90
7894;DHT22;51343;51.396;6.656;2023-10-31T13:05:16;13.80;99.90
7894;DHT22;51343;51.396;6.656;2023-10-31T13:07:50;13.70;99.90
7894;DHT22;51343;51.396;6.656;2023-10-31T13:10:19;13.70;99.90
7894;DHT22;51343;51.396;6.656;2023-10-31T13:12:46;13.70;99.90
7894;DHT22;51343;51.396;6.656;2023-10-31T13:15:13;13.80;99.90
7894;DHT22;51343;51.396;6.656;2023-10-31T13:17:40;13.80;99.90
7894;DHT22;51343;51.396;6.656;2023-10-31T13:20:08;13.80;99.90
7894;DHT22;51343;51.396;6.656;2023-10-31T13:22:35;13.70;99.90
7894;DHT22;51343;51.396;6.656;2023-10-31T13:25:02;13.60;99.90
7894;DHT22;51343;51.396;6.656;2023-10-31T13:27:31;13.70;99.90
7894;DHT22;51343;51.396;6.656;2023-10-31T13:29:58;13.70;99.90
7894;DHT22;51343;51.396;6.656;2023-10-31T13:32:24;13.80;99.90
7894;DHT22;51343;51.396;6.656;2023-10-31T13:34:51;13.80;99.90
7894;DHT22;51343;51.396;6.656;2023-10-31T13:37:17;13.70;99.90
7894;DHT22;51343;51.396;6.656;2023-10-31T13:39:44;13.90;99.90
7894;DHT22;51343;51.396;6.656;2023-10-31T13:42:11;14.10;99.90
7894;DHT22;51343;51.396;6.656;2023-10-31T13:44:40;14.10;99.90
7894;DHT22;51343;51.396;6.656;2023-10-31T13:47:07;14.20;99.90
7894;DHT22;51343;51.396;6.656;2023-10-31T13:49:34;14.20;99.90
7894;DHT22;51343;51.396;6.656;2023-10-31T13:52:01;14.30;99.90
7894;DHT22;51343;51.396;6.656;2023-10-31T13:54:28;14.50;99.90
7894;DHT22;51343;51.396;6.656;2023-10-31T13:56:54;14.40;99.90
7894;DHT22;51343;51.396;6.656;2023-10-31T13:59:21;14.50;99.90
7894;DHT22;51343;51.396;6.656;2023-10-31T14:01:49;14.60;99.90
7894;DHT22;51343;51.396;6.656;2023-10-31T14:04:15;14.60;99.90
7894;DHT22;51343;51.396;6.656;2023-10-31T14:06:42;14.50;99.90
7894;DHT22;51343;51.396;6.656;2023-10-31T14:09:09;14.50;99.90
7894;DHT22;51343;51.396;6.656;2023-10-31T14:11:37;14.40;99.90
7894;DHT22;51343;51.396;6.656;2023-10-31T14:14:04;14.40;99.90
7894;DHT22;51343;51.396;6.656;2023-10-31T14:16:34;14.20;99.90
7894;DHT22;51343;51.396;6.656;2023-10-31T14:19:02;14.10;99.90
7894;DHT22;51343;51.396;6.656;2023-10-31T14:21:29;14.00;99.90
7894;DHT22;51343;51.396;6.656;2023-10-31T14:23:55;14.00;99.90
7894;DHT22;51343;51.396;6.656;2023-10-31T14:26:22;13.90;99.90
7894;DHT22;51343;51.396;6.656;2023-10-31T14:28:49;13.90;99.90
7894;DHT22;51343;51.396;6.656;2023-10-31T14:31:16;13.90;99.90
7894;DHT22;51343;51.396;6.656;2023-10-31T14:33:43;14.00;99.90
7894;DHT22;51343;51.396;6.656;2023-10-31T14:36:11;14.00;99.90
7894;DHT22;51343;51.396;6.656;2023-10-31T14:38:38;13.90;99.90
7894;DHT22;51343;51.396;6.656;2023-10-31T14:41:05;13.90;99.90
7894;DHT22;51343;51.396;6.656;2023-10-31T14:43:32;13.90;99.90
7894;DHT22;51343;51.396;6.656;2023-10-31T14:45:59;13.80;99.90
7894;DHT22;51343;51.396;6.656;2023-10-31T14:48:25;13.70;99.90
7894;DHT22;51343;51.396;6.656;2023-10-31T14:50:52;13.60;99.90
7894;DHT22;51343;51.396;6.656;2023-10-31T14:53:20;13.50;1.00
7894;DHT22;51343;51.396;6.656;2023-10-31T14:55:47;13.30;1.00
7894;DHT22;51343;51.396;6.656;2023-10-31T14:58:13;13.30;1.00
7894;DHT22;51343;51.396;6.656;2023-10-31T15:00:40;13.20;1.00
7894;DHT22;51343;51.396;6.656;2023-10-31T15:03:07;13.20;1.00
7894;DHT22;51343;51.396;6.656;2023-10-31T15:05:33;13.00;1.00
7894;DHT22;51343;51.396;6.656;2023-10-31T15:08:00;12.90;1.00
7894;DHT22;51343;51.396;6.656;2023-10-31T15:10:29;12.80;1.00
7894;DHT22;51343;51.396;6.656;2023-10-31T15:12:55;12.80;1.00
7894;DHT22;51343;51.396;6.656;2023-10-31T15:15:22;12.70;1.00
7894;DHT22;51343;51.396;6.656;2023-10-31T15:17:49;12.70;1.00
7894;DHT22;51343;51.396;6.656;2023-10-31T15:20:17;12.80;1.00
7894;DHT22;51343;51.396;6.656;2023-10-31T15:22:43;12.80;1.00
7894;DHT22;51343;51.396;6.656;2023-10-31T15:25:10;12.70;1.00
7894;DHT22;51343;51.396;6.656;2023-10-31T15:27:38;12.70;1.00
7894;DHT22;51343;51.396;6.656;2023-10-31T15:30:06;12.70;1.00
7894;DHT22;51343;51.396;6.656;2023-10-31T15:32:33;12.70;1.00
7894;DHT22;51343;51.396;6.656;2023-10-31T15:35:00;12.70;1.00
7894;DHT22;51343;51.396;6.656;2023-10-31T15:37:27;12.70;1.00
7894;DHT22;51343;51.396;6.656;2023-10-31T15:39:54;12.70;1.00
7894;DHT22;51343;51.396;6.656;2023-10-31T15:42:21;12.70;1.00
7894;DHT22;51343;51.396;6.656;2023-10-31T15:44:48;12.80;1.00
7894;DHT22;51343;51.396;6.656;2023-10-31T15:47:15;12.80;1.00